Terminal Aerodrome Forecast
Issued by NWS Louisville, KY

Home | Current Version | Previous Version | Text Only | Print | Product List | Glossary On
Versions: 1 2 3 4 5 6 7 8 9 10 11 12 13 14 15 16 17 18
000
FTUS43 KLMK 271127
TAFLEX
TAF
KLEX 271127Z 2712/2812 16006KT P6SM VCSH SCT040 BKN100
     FM272000 20008KT 6SM -SHRA VCTS SCT025CB BKN050
     FM280500 16007KT P6SM -SHRA BKN030=

USA.gov is the U.S. government's official web portal to all federal, state and local government web resources and services.